Time,TemperatureF,DewpointF,PressureIn,WindDirection,WindDirectionDegrees,WindSpeedMPH,WindSpeedGustMPH,Humidity,HourlyPrecipIn,Conditions,Clouds,dailyrainin,SolarRadiationWatts/m^2,SoftwareType,DateUTC
2013-07-12 00:01:00,71.0,62.0,-100.00,NW,316,1.0,8.0,73,0.00,,,0.04,0.000000,,2013-07-12 06:01:00,
2013-07-12 00:11:00,71.0,62.0,-100.00,NW,316,1.0,8.0,73,0.00,,,0.04,0.000000,,2013-07-12 06:11:00,
2013-07-12 00:22:00,71.0,62.0,-100.00,NW,316,1.0,8.0,73,0.00,,,0.04,0.000000,,2013-07-12 06:22:00,
2013-07-12 00:52:00,72.0,61.0,-100.00,NW,323,3.0,5.0,69,0.00,,,0.04,0.000000,,2013-07-12 06:52:00,
2013-07-12 01:02:00,72.0,61.0,-100.00,NW,323,3.0,5.0,69,0.00,,,0.04,0.000000,,2013-07-12 07:02:00,
2013-07-12 01:12:00,72.0,61.0,-100.00,NW,323,3.0,5.0,69,0.00,,,0.04,0.000000,,2013-07-12 07:12:00,
2013-07-12 01:22:00,72.0,61.0,-100.00,NW,323,3.0,5.0,69,0.00,,,0.04,0.000000,,2013-07-12 07:22:00,
2013-07-12 01:52:00,70.0,63.0,-100.00,NW,305,5.0,12.0,79,0.00,,,0.04,0.000000,,2013-07-12 07:52:00,
2013-07-12 02:01:00,70.0,63.0,-100.00,NW,305,5.0,12.0,79,0.00,,,0.04,0.000000,,2013-07-12 08:01:00,
2013-07-12 02:11:00,70.0,63.0,-100.00,NW,305,5.0,12.0,79,0.00,,,0.04,0.000000,,2013-07-12 08:11:00,
2013-07-12 02:21:00,70.0,63.0,-100.00,NW,305,5.0,12.0,79,0.00,,,0.04,0.000000,,2013-07-12 08:21:00,
2013-07-12 02:42:00,72.0,65.0,-100.00,NNW,329,4.0,10.0,80,0.00,,,0.04,0.000000,,2013-07-12 08:42:00,
2013-07-12 02:53:00,72.0,65.0,-100.00,NNW,329,4.0,10.0,80,0.00,,,0.04,0.000000,,2013-07-12 08:53:00,
2013-07-12 03:02:00,72.0,65.0,-100.00,NNW,329,4.0,10.0,80,0.00,,,0.04,0.000000,,2013-07-12 09:02:00,
2013-07-12 03:12:00,72.0,65.0,-100.00,NNW,329,4.0,10.0,80,0.00,,,0.04,0.000000,,2013-07-12 09:12:00,
2013-07-12 03:22:00,72.0,65.0,-100.00,NNW,329,4.0,10.0,80,0.00,,,0.04,0.000000,,2013-07-12 09:22:00,
2013-07-12 03:52:00,70.0,58.0,-100.00,NNW,329,2.0,10.0,65,0.00,,,0.04,0.000000,,2013-07-12 09:52:00,
2013-07-12 04:01:00,70.0,58.0,-100.00,NNW,329,2.0,10.0,65,0.00,,,0.04,0.000000,,2013-07-12 10:01:00,
2013-07-12 04:11:00,70.0,58.0,-100.00,NNW,329,2.0,10.0,65,0.00,,,0.04,0.000000,,2013-07-12 10:11:00,
2013-07-12 04:22:00,70.0,58.0,-100.00,NNW,329,2.0,10.0,65,0.00,,,0.04,0.000000,,2013-07-12 10:22:00,
2013-07-12 04:52:00,70.0,57.0,-100.00,WNW,288,3.0,6.0,63,0.00,,,0.04,0.000000,,2013-07-12 10:52:00,
2013-07-12 05:02:00,70.0,57.0,-100.00,WNW,288,3.0,6.0,63,0.00,,,0.04,0.000000,,2013-07-12 11:02:00,
2013-07-12 05:11:00,70.0,57.0,-100.00,WNW,288,3.0,6.0,63,0.00,,,0.04,0.000000,,2013-07-12 11:11:00,
2013-07-12 05:22:00,70.0,57.0,-100.00,WNW,288,3.0,6.0,63,0.00,,,0.04,0.000000,,2013-07-12 11:22:00,
2013-07-12 05:53:00,71.0,57.0,-100.00,West,276,4.0,9.0,61,0.00,,,0.04,0.000000,,2013-07-12 11:53:00,
2013-07-12 06:01:00,71.0,57.0,-100.00,West,276,4.0,9.0,61,0.00,,,0.04,0.000000,,2013-07-12 12:01:00,
2013-07-12 06:11:00,71.0,57.0,-100.00,West,276,4.0,9.0,61,0.00,,,0.04,0.000000,,2013-07-12 12:11:00,
2013-07-12 06:22:00,71.0,57.0,-100.00,West,276,4.0,9.0,61,0.00,,,0.04,0.000000,,2013-07-12 12:22:00,
2013-07-12 06:52:00,68.0,58.0,-100.00,SW,233,1.0,10.0,71,0.00,,,0.04,18.000000,,2013-07-12 12:52:00,
2013-07-12 07:01:00,68.0,58.0,-100.00,SW,233,1.0,10.0,71,0.00,,,0.04,18.000000,,2013-07-12 13:01:00,
2013-07-12 07:12:00,68.0,58.0,-100.00,SW,233,1.0,10.0,71,0.00,,,0.04,18.000000,,2013-07-12 13:12:00,
2013-07-12 07:22:00,68.0,58.0,-100.00,SW,233,1.0,10.0,71,0.00,,,0.04,18.000000,,2013-07-12 13:22:00,
2013-07-12 07:53:00,68.0,62.0,-100.00,ESE,115,0.0,3.0,82,0.00,,,0.04,48.000000,,2013-07-12 13:53:00,
2013-07-12 08:02:00,68.0,62.0,-100.00,ESE,115,0.0,3.0,82,0.00,,,0.04,48.000000,,2013-07-12 14:02:00,
2013-07-12 08:11:00,68.0,62.0,-100.00,ESE,115,0.0,3.0,82,0.00,,,0.04,48.000000,,2013-07-12 14:11:00,
2013-07-12 08:22:00,68.0,62.0,-100.00,ESE,115,0.0,3.0,82,0.00,,,0.04,48.000000,,2013-07-12 14:22:00,
2013-07-12 08:53:00,73.0,60.0,-100.00,South,173,1.0,5.0,64,0.00,,,0.04,121.000000,,2013-07-12 14:53:00,
2013-07-12 09:02:00,73.0,60.0,-100.00,South,173,1.0,5.0,64,0.00,,,0.04,121.000000,,2013-07-12 15:02:00,
2013-07-12 09:11:00,73.0,60.0,-100.00,South,173,1.0,5.0,64,0.00,,,0.04,121.000000,,2013-07-12 15:11:00,
2013-07-12 09:22:00,73.0,60.0,-100.00,South,173,1.0,5.0,64,0.00,,,0.04,121.000000,,2013-07-12 15:22:00,
2013-07-12 09:53:00,80.0,59.0,-100.00,WSW,255,6.0,11.0,49,0.00,,,-99.99,454.000000,,2013-07-12 15:53:00,
2013-07-12 10:01:00,80.0,59.0,-100.00,WSW,255,6.0,11.0,49,0.00,,,-99.99,454.000000,,2013-07-12 16:01:00,
2013-07-12 10:11:00,80.0,59.0,-100.00,WSW,255,6.0,11.0,49,0.00,,,-99.99,454.000000,,2013-07-12 16:11:00,
2013-07-12 10:22:00,80.0,59.0,-100.00,WSW,255,6.0,11.0,49,0.00,,,-99.99,454.000000,,2013-07-12 16:22:00,
2013-07-12 10:58:00,82.0,60.0,-100.00,WNW,299,6.0,13.0,48,0.00,,,0.04,651.000000,,2013-07-12 16:58:00,
2013-07-12 11:05:00,82.0,60.0,-100.00,WNW,299,6.0,13.0,48,0.00,,,0.04,651.000000,,2013-07-12 17:05:00,
2013-07-12 11:13:00,82.0,60.0,-100.00,WNW,299,6.0,13.0,48,0.00,,,0.04,651.000000,,2013-07-12 17:13:00,
2013-07-12 11:23:00,82.0,60.0,-100.00,WNW,299,6.0,13.0,48,0.00,,,0.04,651.000000,,2013-07-12 17:23:00,
2013-07-12 11:24:00,84.0,63.0,-100.00,WNW,295,4.0,11.0,50,0.00,,,0.04,505.000000,,2013-07-12 17:24:00,
2013-07-12 11:55:00,84.0,63.0,-100.00,WNW,295,4.0,11.0,50,0.00,,,0.04,505.000000,,2013-07-12 17:55:00,
2013-07-12 12:06:00,84.0,63.0,-100.00,WNW,295,4.0,11.0,50,0.00,,,0.04,505.000000,,2013-07-12 18:06:00,
2013-07-12 12:14:00,84.0,63.0,-100.00,WNW,295,4.0,11.0,50,0.00,,,0.04,505.000000,,2013-07-12 18:14:00,
2013-07-12 12:57:00,80.0,58.0,-100.00,NW,322,2.0,11.0,47,0.00,,,0.04,476.000000,,2013-07-12 18:57:00,
2013-07-12 13:04:00,80.0,58.0,-100.00,NW,322,2.0,11.0,47,0.00,,,0.04,476.000000,,2013-07-12 19:04:00,
2013-07-12 13:15:00,80.0,58.0,-100.00,NW,322,2.0,11.0,47,0.00,,,0.04,476.000000,,2013-07-12 19:15:00,
2013-07-12 13:24:00,81.0,59.0,-100.00,NW,325,5.0,9.0,47,0.00,,,-99.99,484.000000,,2013-07-12 19:24:00,
2013-07-12 13:58:00,81.0,59.0,-100.00,NW,325,5.0,9.0,47,0.00,,,-99.99,484.000000,,2013-07-12 19:58:00,
2013-07-12 14:13:00,81.0,59.0,-100.00,NW,325,5.0,9.0,47,0.00,,,-99.99,484.000000,,2013-07-12 20:13:00,
2013-07-12 14:24:00,84.0,55.0,-100.00,NW,304,4.0,10.0,37,0.00,,,0.04,557.000000,,2013-07-12 20:24:00,
2013-07-12 14:55:00,84.0,55.0,-100.00,NW,304,4.0,10.0,37,0.00,,,0.04,557.000000,,2013-07-12 20:55:00,
2013-07-12 15:03:00,84.0,55.0,-100.00,NW,304,4.0,10.0,37,0.00,,,0.04,557.000000,,2013-07-12 21:03:00,
2013-07-12 15:14:00,84.0,55.0,-100.00,NW,304,4.0,10.0,37,0.00,,,0.04,557.000000,,2013-07-12 21:14:00,
2013-07-12 16:15:00,88.0,53.0,-100.00,West,262,4.0,8.0,30,0.00,,,0.04,950.000000,,2013-07-12 22:15:00,
2013-07-12 16:23:00,88.0,53.0,-100.00,West,262,4.0,8.0,30,0.00,,,0.04,950.000000,,2013-07-12 22:23:00,
2013-07-12 16:56:00,89.0,50.0,-100.00,SSW,213,2.0,9.0,26,0.00,,,0.00,879.000000,,2013-07-12 22:56:00,
2013-07-12 17:03:00,89.0,50.0,-100.00,SSW,213,2.0,9.0,26,0.00,,,0.00,879.000000,,2013-07-12 23:03:00,
2013-07-12 17:13:00,89.0,50.0,-100.00,SSW,213,2.0,9.0,26,0.00,,,0.00,879.000000,,2013-07-12 23:13:00,
2013-07-12 17:23:00,89.0,50.0,-100.00,SSW,213,2.0,9.0,26,0.00,,,0.00,879.000000,,2013-07-12 23:23:00,
2013-07-12 17:24:00,89.0,47.0,-100.00,WSW,241,2.0,8.0,24,0.00,,,0.00,607.000000,,2013-07-12 23:24:00,
2013-07-12 17:58:00,89.0,47.0,-100.00,WSW,241,2.0,8.0,24,0.00,,,0.00,607.000000,,2013-07-12 23:58:00,
2013-07-12 18:16:00,89.0,47.0,-100.00,WSW,241,2.0,8.0,24,0.00,,,0.00,607.000000,,2013-07-13 00:16:00,
2013-07-12 18:24:00,91.0,50.0,-100.00,NNW,328,1.0,5.0,25,0.00,,,0.00,470.000000,,2013-07-13 00:24:00,
2013-07-12 18:56:00,91.0,50.0,-100.00,NNW,328,1.0,5.0,25,0.00,,,0.00,470.000000,,2013-07-13 00:56:00,
2013-07-12 19:03:00,91.0,50.0,-100.00,NNW,328,1.0,5.0,25,0.00,,,0.00,470.000000,,2013-07-13 01:03:00,
2013-07-12 19:12:00,91.0,50.0,-100.00,NNW,328,1.0,5.0,25,0.00,,,0.00,470.000000,,2013-07-13 01:12:00,
2013-07-12 19:56:00,88.0,51.0,-100.00,South,186,2.0,5.0,28,0.00,,,0.00,116.000000,,2013-07-13 01:56:00,
2013-07-12 20:04:00,88.0,51.0,-100.00,South,186,2.0,5.0,28,0.00,,,0.00,116.000000,,2013-07-13 02:04:00,
2013-07-12 20:14:00,88.0,51.0,-100.00,South,186,2.0,5.0,28,0.00,,,0.00,116.000000,,2013-07-13 02:14:00,
2013-07-12 20:22:00,88.0,51.0,-100.00,South,186,2.0,5.0,28,0.00,,,0.00,116.000000,,2013-07-13 02:22:00,
2013-07-12 20:24:00,78.0,57.0,-100.00,SSW,200,2.0,4.0,48,0.00,,,0.00,69.000000,,2013-07-13 02:24:00,
2013-07-12 20:55:00,78.0,57.0,-100.00,SSW,200,2.0,4.0,48,0.00,,,0.00,69.000000,,2013-07-13 02:55:00,
2013-07-12 21:05:00,78.0,57.0,-100.00,SSW,200,2.0,4.0,48,0.00,,,0.00,69.000000,,2013-07-13 03:05:00,
2013-07-12 21:12:00,78.0,57.0,-100.00,SSW,200,2.0,4.0,48,0.00,,,0.00,69.000000,,2013-07-13 03:12:00,
2013-07-12 21:46:00,70.0,57.0,-100.00,SW,219,2.0,5.0,64,0.00,,,0.00,10.000000,,2013-07-13 03:46:00,
2013-07-12 21:57:00,70.0,57.0,-100.00,SW,219,2.0,5.0,64,0.00,,,0.00,10.000000,,2013-07-13 03:57:00,
2013-07-12 22:01:00,70.0,57.0,-100.00,SW,219,2.0,5.0,64,0.00,,,0.00,10.000000,,2013-07-13 04:01:00,
2013-07-12 22:11:00,70.0,57.0,-100.00,SW,219,2.0,5.0,64,0.00,,,0.00,10.000000,,2013-07-13 04:11:00,
2013-07-12 22:22:00,70.0,57.0,-100.00,SW,219,2.0,5.0,64,0.00,,,0.00,10.000000,,2013-07-13 04:22:00,
2013-07-12 22:52:00,68.0,54.0,-100.00,South,183,2.0,7.0,61,0.00,,,0.00,0.000000,,2013-07-13 04:52:00,
2013-07-12 23:01:00,68.0,54.0,-100.00,South,183,2.0,7.0,61,0.00,,,0.00,0.000000,,2013-07-13 05:01:00,
2013-07-12 23:11:00,68.0,54.0,-100.00,South,183,2.0,7.0,61,0.00,,,0.00,0.000000,,2013-07-13 05:11:00,
2013-07-12 23:22:00,68.0,54.0,-100.00,South,183,2.0,7.0,61,0.00,,,0.00,0.000000,,2013-07-13 05:22:00,
2013-07-12 23:52:00,67.0,54.0,-100.00,South,176,2.0,6.0,63,0.00,,,0.00,0.000000,,2013-07-13 05:52:00,